createdAt,value
2019-04-30T00:01:15.183Z,39.53
2019-04-30T00:03:43.347Z,23.83
2019-04-30T00:06:15.696Z,38.33
2019-04-30T00:08:47.840Z,42.27
2019-04-30T00:11:20.846Z,38.67
2019-04-30T00:13:57.305Z,32.28
2019-04-30T00:16:26.088Z,39.98
2019-04-30T00:19:00.719Z,37.00
2019-04-30T00:21:31.309Z,37.53
2019-04-30T00:24:06.328Z,35.88
2019-04-30T00:26:39.864Z,39.95
2019-04-30T00:29:11.243Z,34.70
2019-04-30T00:31:44.703Z,39.55
2019-04-30T00:34:17.009Z,40.12
2019-04-30T00:36:49.093Z,40.83
2019-04-30T00:39:21.394Z,39.90
2019-04-30T00:41:54.645Z,39.73
2019-04-30T00:44:28.442Z,43.40
2019-04-30T00:47:04.978Z,41.90
2019-04-30T00:49:36.526Z,42.05
2019-04-30T00:52:08.466Z,41.55
2019-04-30T00:54:40.376Z,42.25
2019-04-30T00:57:14.790Z,38.92
2019-04-30T00:59:48.169Z,42.93
2019-04-30T01:02:32.281Z,44.48
2019-04-30T01:05:09.126Z,43.95
2019-04-30T01:07:49.614Z,42.88
2019-04-30T01:10:26.783Z,37.03
2019-04-30T01:13:01.880Z,42.33
2019-04-30T01:15:29.541Z,41.58
2019-04-30T01:18:01.387Z,43.17
2019-04-30T01:20:34.235Z,42.73
2019-04-30T01:23:07.994Z,44.48
2019-04-30T01:25:43.147Z,36.55
2019-04-30T01:28:22.894Z,44.38
2019-04-30T01:30:53.854Z,43.58
2019-04-30T01:33:34.468Z,48.65
2019-04-30T01:36:04.055Z,43.25
2019-04-30T01:38:40.257Z,43.38
2019-04-30T01:41:14.996Z,45.08
2019-04-30T01:43:48.620Z,46.35
2019-04-30T01:46:21.785Z,47.38
2019-04-30T01:48:54.923Z,47.25
2019-04-30T01:51:28.662Z,46.28
2019-04-30T01:54:00.930Z,48.98
2019-04-30T01:56:34.358Z,49.08
2019-04-30T01:59:23.831Z,46.77
2019-04-30T02:01:55.751Z,50.88
2019-04-30T02:04:28.970Z,49.77
2019-04-30T02:07:01.028Z,49.03
2019-04-30T02:09:32.803Z,49.08
2019-04-30T02:12:06.057Z,49.20
2019-04-30T02:14:39.522Z,52.30
2019-04-30T02:17:11.818Z,49.65
2019-04-30T02:19:54.066Z,47.93
2019-04-30T02:22:18.838Z,49.13
2019-04-30T02:25:01.412Z,48.28
2019-04-30T02:27:34.938Z,50.48
2019-04-30T02:30:11.518Z,49.50
2019-04-30T02:32:44.786Z,49.20
2019-04-30T02:35:28.774Z,47.48
2019-04-30T02:38:10.993Z,45.98
2019-04-30T02:40:44.847Z,48.17
2019-04-30T02:43:20.366Z,48.98
2019-04-30T02:45:55.807Z,51.42
2019-04-30T02:48:30.866Z,50.75
2019-04-30T02:51:06.933Z,48.98
2019-04-30T02:53:53.631Z,48.40
2019-04-30T02:56:27.785Z,50.12
2019-04-30T02:59:03.599Z,48.90
2019-04-30T03:01:33.724Z,49.05
2019-04-30T03:04:06.640Z,50.30
2019-04-30T03:06:40.664Z,44.40
2019-04-30T03:09:12.887Z,47.95
2019-04-30T03:11:44.696Z,48.28
2019-04-30T03:14:16.464Z,49.45
2019-04-30T03:16:52.729Z,45.28
2019-04-30T03:19:29.586Z,43.30
2019-04-30T03:22:05.476Z,45.40
2019-04-30T03:24:42.241Z,46.65
2019-04-30T03:27:12.697Z,45.20
2019-04-30T03:29:45.834Z,49.70
2019-04-30T03:32:22.384Z,47.10
2019-04-30T03:34:52.658Z,45.55
2019-04-30T03:37:25.090Z,48.00
2019-04-30T03:40:00.641Z,45.00
2019-04-30T03:42:32.380Z,44.25
2019-04-30T03:45:10.072Z,46.42
2019-04-30T03:47:43.175Z,40.43
2019-04-30T03:50:15.356Z,40.95
2019-04-30T03:52:47.280Z,46.23
2019-04-30T03:55:20.598Z,40.65
2019-04-30T03:57:54.113Z,41.80
2019-04-30T04:00:42.170Z,43.70
2019-04-30T04:03:12.695Z,40.63
2019-04-30T04:05:46.614Z,39.25
2019-04-30T04:08:19.963Z,38.65
2019-04-30T04:10:57.084Z,35.43
2019-04-30T04:13:33.087Z,39.98
2019-04-30T04:16:05.487Z,36.80
2019-04-30T04:18:39.958Z,31.20
2019-04-30T04:21:16.305Z,34.35
2019-04-30T04:23:45.238Z,33.90
2019-04-30T04:26:20.068Z,31.97
2019-04-30T04:28:51.188Z,30.37
2019-04-30T04:31:24.431Z,30.80
2019-04-30T04:33:59.796Z,27.15
2019-04-30T04:36:33.445Z,26.20
2019-04-30T04:39:09.872Z,27.20
2019-04-30T04:41:44.189Z,24.55
2019-04-30T04:44:15.138Z,22.73
2019-04-30T04:46:50.572Z,20.40
2019-04-30T04:49:23.286Z,19.80
2019-04-30T04:51:54.861Z,21.17
2019-04-30T04:54:29.997Z,19.57
2019-04-30T04:57:14.871Z,18.07
2019-04-30T04:59:39.745Z,18.65
2019-04-30T05:02:32.858Z,19.05
2019-04-30T05:05:06.652Z,18.77
2019-04-30T05:07:40.190Z,16.80
2019-04-30T05:10:12.080Z,16.45
2019-04-30T05:12:51.077Z,16.23
2019-04-30T05:15:22.861Z,16.15
2019-04-30T05:17:54.648Z,16.95
2019-04-30T05:20:29.059Z,16.65
2019-04-30T05:23:00.544Z,16.80
2019-04-30T05:25:34.345Z,16.97
2019-04-30T05:30:40.417Z,14.60
2019-04-30T05:33:12.385Z,13.50
2019-04-30T05:35:43.971Z,13.98
2019-04-30T05:38:18.963Z,14.05
2019-04-30T05:40:53.375Z,14.03
2019-04-30T05:43:28.833Z,14.50
2019-04-30T05:46:00.141Z,19.35
2019-04-30T05:48:33.258Z,23.40
2019-04-30T05:51:05.014Z,16.17
2019-04-30T05:53:39.381Z,14.40
2019-04-30T05:58:44.320Z,13.58
2019-04-30T06:01:19.609Z,13.30
2019-04-30T06:03:59.449Z,13.25
2019-04-30T06:06:33.633Z,12.50
2019-04-30T06:09:14.820Z,13.10
2019-04-30T06:12:04.833Z,13.60
2019-04-30T06:14:48.639Z,13.25
2019-04-30T06:17:19.598Z,12.78
2019-04-30T06:19:52.667Z,12.78
2019-04-30T06:22:28.863Z,11.68
2019-04-30T06:25:03.059Z,13.90
2019-04-30T06:27:38.674Z,14.03
2019-04-30T06:30:19.707Z,14.43
2019-04-30T06:32:52.210Z,12.53
2019-04-30T06:35:24.266Z,13.30
2019-04-30T06:37:58.778Z,11.93
2019-04-30T06:40:30.044Z,12.05
2019-04-30T06:43:04.220Z,11.57
2019-04-30T06:45:38.781Z,11.53
2019-04-30T06:48:12.508Z,11.50
2019-04-30T06:50:44.452Z,12.40
2019-04-30T06:53:19.101Z,11.88
2019-04-30T06:55:50.701Z,12.23
2019-04-30T06:58:23.605Z,17.23
2019-04-30T07:00:55.502Z,20.40
2019-04-30T07:03:28.922Z,13.28
2019-04-30T07:06:04.210Z,11.45
2019-04-30T07:08:54.837Z,11.40
2019-04-30T07:11:21.782Z,12.40
2019-04-30T07:13:53.654Z,12.05
2019-04-30T07:16:25.467Z,11.22
2019-04-30T07:18:58.647Z,12.15
2019-04-30T07:21:36.422Z,11.38
2019-04-30T07:24:06.272Z,12.73
2019-04-30T07:26:39.004Z,11.90
2019-04-30T07:29:12.024Z,12.63
2019-04-30T07:31:45.084Z,11.83
2019-04-30T07:34:19.730Z,11.68
2019-04-30T07:37:10.838Z,12.45
2019-04-30T07:39:33.309Z,10.72
2019-04-30T07:42:03.821Z,10.78
2019-04-30T07:44:36.707Z,10.88
2019-04-30T07:47:09.743Z,11.28
2019-04-30T07:49:49.733Z,10.72
2019-04-30T07:52:17.014Z,10.95
2019-04-30T07:54:51.881Z,11.25
2019-04-30T07:57:26.098Z,10.23
2019-04-30T08:00:00.529Z,10.48
2019-04-30T08:02:37.073Z,9.53
2019-04-30T08:05:13.478Z,9.58
2019-04-30T08:07:45.256Z,9.43
2019-04-30T08:10:20.976Z,8.83
2019-04-30T08:12:53.057Z,8.68
2019-04-30T08:15:29.636Z,9.48
2019-04-30T08:18:05.532Z,9.35
2019-04-30T08:20:34.940Z,9.05
2019-04-30T08:23:15.569Z,8.33
2019-04-30T08:25:40.179Z,8.53
2019-04-30T08:28:13.140Z,8.05
2019-04-30T08:30:44.754Z,8.10
2019-04-30T08:33:16.492Z,7.45
2019-04-30T08:35:50.010Z,7.80
2019-04-30T08:38:24.612Z,8.00
2019-04-30T08:40:58.797Z,8.58
2019-04-30T08:43:31.143Z,8.00
2019-04-30T08:46:04.100Z,8.00
2019-04-30T08:48:50.040Z,7.45
2019-04-30T08:51:13.551Z,7.22
2019-04-30T08:53:44.586Z,7.28
2019-04-30T08:56:16.024Z,6.25
2019-04-30T08:58:49.497Z,6.60
2019-04-30T09:01:21.113Z,6.80
2019-04-30T09:03:54.905Z,5.92
2019-04-30T09:06:29.064Z,5.78
2019-04-30T09:09:04.628Z,5.80
2019-04-30T09:11:49.975Z,5.87
2019-04-30T09:14:10.863Z,6.12
2019-04-30T09:16:42.470Z,5.72
2019-04-30T09:19:15.569Z,6.40
2019-04-30T09:21:48.857Z,6.45
2019-04-30T09:24:20.643Z,6.35
2019-04-30T09:26:52.706Z,6.72
2019-04-30T09:29:25.301Z,6.30
2019-04-30T09:31:59.626Z,7.37
2019-04-30T09:34:31.342Z,7.35
2019-04-30T09:37:03.014Z,7.40
2019-04-30T09:39:34.589Z,8.53
2019-04-30T09:42:06.142Z,8.58
2019-04-30T09:44:39.083Z,8.50
2019-04-30T09:47:11.056Z,9.15
2019-04-30T09:49:44.052Z,9.03
2019-04-30T09:52:15.695Z,9.35
2019-04-30T09:54:49.853Z,8.15
2019-04-30T09:57:23.500Z,8.38
2019-04-30T09:59:55.054Z,8.05
2019-04-30T10:02:26.613Z,7.90
2019-04-30T10:04:58.930Z,8.50
2019-04-30T10:07:32.578Z,9.13
2019-04-30T10:10:09.512Z,8.15
2019-04-30T10:12:42.163Z,8.18
2019-04-30T10:15:15.727Z,7.17
2019-04-30T10:17:49.828Z,7.17
2019-04-30T10:20:24.358Z,7.08
2019-04-30T10:22:56.773Z,7.60
2019-04-30T10:25:28.324Z,9.55
2019-04-30T10:28:01.888Z,8.63
2019-04-30T10:30:37.444Z,10.08
2019-04-30T10:33:10.059Z,9.93
2019-04-30T10:35:43.397Z,9.73
2019-04-30T10:38:16.188Z,9.70
2019-04-30T10:40:48.759Z,9.88
2019-04-30T10:43:21.379Z,9.65
2019-04-30T10:45:53.009Z,9.48
2019-04-30T10:48:24.677Z,9.55
2019-04-30T10:50:56.427Z,9.33
2019-04-30T10:53:27.959Z,10.08
2019-04-30T10:55:59.719Z,9.58
2019-04-30T10:58:33.514Z,9.75
2019-04-30T11:01:06.958Z,13.18
2019-04-30T11:03:39.194Z,11.95
2019-04-30T11:06:11.013Z,12.20
2019-04-30T11:08:47.455Z,11.70
2019-04-30T11:11:19.286Z,12.05
2019-04-30T11:13:51.253Z,13.40
2019-04-30T11:16:23.033Z,13.85
2019-04-30T11:18:56.054Z,19.73
2019-04-30T11:21:29.763Z,24.95
2019-04-30T11:24:06.043Z,22.13
2019-04-30T11:26:40.260Z,20.55
2019-04-30T11:29:11.446Z,30.75
2019-04-30T11:31:48.159Z,30.48
2019-04-30T11:34:21.558Z,31.17
2019-04-30T11:36:54.807Z,35.08
2019-04-30T11:39:29.880Z,34.48
2019-04-30T11:42:01.976Z,35.13
2019-04-30T11:44:38.668Z,35.70
2019-04-30T11:47:15.933Z,35.33
2019-04-30T11:49:47.624Z,37.13
2019-04-30T11:52:21.448Z,35.33
2019-04-30T11:54:54.871Z,30.92
2019-04-30T11:57:29.790Z,32.30
2019-04-30T12:00:01.936Z,26.85
2019-04-30T12:02:39.381Z,27.93
2019-04-30T12:05:15.007Z,29.65
2019-04-30T12:07:57.111Z,26.87
2019-04-30T12:14:23.603Z,33.33
2019-04-30T12:16:57.189Z,37.73
2019-04-30T12:19:29.650Z,35.60
2019-04-30T12:22:01.411Z,36.75
2019-04-30T12:24:34.246Z,33.15
2019-04-30T12:27:06.030Z,31.60
2019-04-30T12:29:39.739Z,38.75
2019-04-30T12:32:11.304Z,39.48
2019-04-30T12:34:45.607Z,37.05
2019-04-30T12:37:20.068Z,34.43
2019-04-30T12:39:52.297Z,36.50
2019-04-30T12:42:28.912Z,31.02
2019-04-30T12:45:02.579Z,38.90
2019-04-30T12:47:35.939Z,36.35
2019-04-30T12:50:12.462Z,36.28
2019-04-30T12:52:49.565Z,38.33
2019-04-30T12:55:39.193Z,36.45
2019-04-30T12:58:11.226Z,33.98
2019-04-30T13:00:46.025Z,34.30
2019-04-30T13:03:18.765Z,37.20
2019-04-30T13:05:52.221Z,37.65
2019-04-30T13:08:24.809Z,32.60
2019-04-30T13:10:59.530Z,38.08
2019-04-30T13:13:32.347Z,38.90
2019-04-30T13:16:04.817Z,35.13
2019-04-30T13:18:49.394Z,35.58
2019-04-30T13:21:22.329Z,31.07
2019-04-30T13:23:55.268Z,35.90
2019-04-30T13:26:28.569Z,36.30
2019-04-30T13:29:13.949Z,35.38
2019-04-30T13:31:50.079Z,34.90
2019-04-30T13:34:40.226Z,34.10
2019-04-30T13:37:13.833Z,33.38
2019-04-30T13:39:57.889Z,11.50
2019-04-30T13:42:34.839Z,11.25
2019-04-30T13:45:12.017Z,25.12
2019-04-30T13:50:19.147Z,28.32
2019-04-30T13:52:50.736Z,21.30
2019-04-30T13:55:22.522Z,29.75
2019-04-30T13:57:56.654Z,27.45
2019-04-30T14:00:30.242Z,27.27
2019-04-30T14:03:19.864Z,27.65
2019-04-30T14:05:54.208Z,25.55
2019-04-30T14:08:28.981Z,27.17
2019-04-30T14:13:31.969Z,28.85
2019-04-30T14:16:03.641Z,22.80
2019-04-30T14:18:39.149Z,19.73
2019-04-30T14:21:13.673Z,17.82
2019-04-30T14:26:20.049Z,17.30
2019-04-30T14:28:54.107Z,15.50
2019-04-30T14:31:30.412Z,20.25
2019-04-30T14:34:04.173Z,25.97
2019-04-30T14:36:36.062Z,24.27
2019-04-30T14:39:17.003Z,19.48
2019-04-30T14:41:49.195Z,20.92
2019-04-30T14:44:23.964Z,12.10
2019-04-30T14:47:00.069Z,17.90
2019-04-30T14:49:42.598Z,23.20
2019-04-30T14:52:16.248Z,17.10
2019-04-30T14:54:52.378Z,20.43
2019-04-30T14:57:29.043Z,15.75
2019-04-30T15:00:10.363Z,16.65
2019-04-30T15:02:45.261Z,16.87
2019-04-30T15:05:20.853Z,27.85
2019-04-30T15:07:55.911Z,23.47
2019-04-30T15:10:30.551Z,24.40
2019-04-30T15:13:02.695Z,17.37
2019-04-30T15:15:35.263Z,21.57
2019-04-30T15:18:09.333Z,21.65
2019-04-30T15:20:41.161Z,19.77
2019-04-30T15:23:21.675Z,23.10
2019-04-30T15:25:52.695Z,23.75
2019-04-30T15:28:32.387Z,21.20
2019-04-30T15:31:02.321Z,21.80
2019-04-30T15:33:46.405Z,22.52
2019-04-30T15:36:19.307Z,23.10
2019-04-30T15:38:59.838Z,20.65
2019-04-30T15:41:34.812Z,20.92
2019-04-30T15:44:08.106Z,25.95
2019-04-30T15:46:41.506Z,24.57
2019-04-30T15:49:14.836Z,24.98
2019-04-30T15:51:49.118Z,24.90
2019-04-30T15:54:22.207Z,20.08
2019-04-30T15:57:00.284Z,21.35
2019-04-30T15:59:36.157Z,15.65
2019-04-30T16:02:16.468Z,17.90
2019-04-30T16:04:54.071Z,29.63
2019-04-30T16:07:25.938Z,33.13
2019-04-30T16:10:22.063Z,31.23
2019-04-30T16:13:09.762Z,31.85
2019-04-30T16:15:46.428Z,29.23
2019-04-30T16:18:19.678Z,32.40
2019-04-30T16:20:51.342Z,29.67
2019-04-30T16:23:28.071Z,29.25
2019-04-30T16:28:39.043Z,33.18
2019-04-30T16:31:15.786Z,29.63
2019-04-30T16:33:53.496Z,31.37
2019-04-30T16:36:31.837Z,31.52
2019-04-30T16:39:04.348Z,32.45
2019-04-30T16:41:41.525Z,31.57
2019-04-30T16:44:14.153Z,28.60
2019-04-30T16:46:50.060Z,32.05
2019-04-30T16:49:25.624Z,33.78
2019-04-30T16:52:02.003Z,32.05
2019-04-30T16:54:35.708Z,33.13
2019-04-30T16:57:10.318Z,32.73
2019-04-30T16:59:45.435Z,14.68
2019-04-30T17:02:19.193Z,15.18
2019-04-30T17:04:56.036Z,21.30
2019-04-30T17:07:38.710Z,17.98
2019-04-30T17:10:18.917Z,24.12
2019-04-30T17:13:03.610Z,18.90
2019-04-30T17:15:37.281Z,19.75
2019-04-30T17:18:14.265Z,27.20
2019-04-30T17:20:49.121Z,35.17
2019-04-30T17:23:22.002Z,33.38
2019-04-30T17:25:55.291Z,25.90
2019-04-30T17:28:28.567Z,19.57
2019-04-30T17:31:05.810Z,22.90
2019-04-30T17:33:38.712Z,33.40
2019-04-30T17:36:11.391Z,23.07
2019-04-30T17:38:50.011Z,16.87
2019-04-30T17:41:22.539Z,21.70
2019-04-30T17:43:58.969Z,24.85
2019-04-30T17:46:30.766Z,18.62
2019-04-30T17:49:03.722Z,15.65
2019-04-30T17:51:38.340Z,19.20
2019-04-30T17:54:11.560Z,15.05
2019-04-30T17:56:45.772Z,15.68
2019-04-30T17:59:18.034Z,18.87
2019-04-30T18:01:53.721Z,22.77
2019-04-30T18:04:29.546Z,21.48
2019-04-30T18:07:02.192Z,20.25
2019-04-30T18:09:35.041Z,21.27
2019-04-30T18:12:09.497Z,20.70
2019-04-30T18:14:42.378Z,17.80
2019-04-30T18:17:16.873Z,22.22
2019-04-30T18:19:50.225Z,31.30
2019-04-30T18:22:40.354Z,30.52
2019-04-30T18:25:23.621Z,40.15
2019-04-30T18:27:59.344Z,36.70
2019-04-30T18:30:33.407Z,30.12
2019-04-30T18:33:09.914Z,41.75
2019-04-30T18:35:42.941Z,32.42
2019-04-30T18:38:17.538Z,41.65
2019-04-30T18:40:49.643Z,39.03
2019-04-30T18:43:23.840Z,19.02
2019-04-30T18:45:56.979Z,30.23
2019-04-30T18:48:30.071Z,32.75
2019-04-30T18:51:18.973Z,38.90
2019-04-30T18:53:39.734Z,31.27
2019-04-30T18:56:14.889Z,38.55
2019-04-30T18:58:51.180Z,43.45
2019-04-30T19:01:27.457Z,42.35
2019-04-30T19:04:01.117Z,32.50
2019-04-30T19:06:43.290Z,21.25
2019-04-30T19:09:27.242Z,21.37
2019-04-30T19:12:12.359Z,26.00
2019-04-30T19:15:02.470Z,30.90
2019-04-30T19:17:40.260Z,21.02
2019-04-30T19:20:24.079Z,35.87
2019-04-30T19:22:58.267Z,29.52
2019-04-30T19:25:35.939Z,35.83
2019-04-30T19:28:13.999Z,35.78
2019-04-30T19:30:55.071Z,28.65
2019-04-30T19:33:17.964Z,20.85
2019-04-30T19:35:54.293Z,33.75
2019-04-30T19:38:26.002Z,25.77
2019-04-30T19:40:59.781Z,45.63
2019-04-30T19:43:34.909Z,38.02
2019-04-30T19:46:09.243Z,37.13
2019-04-30T19:48:44.966Z,29.42
2019-04-30T19:51:19.785Z,40.45
2019-04-30T19:53:53.255Z,25.32
2019-04-30T19:56:26.385Z,33.98
2019-04-30T19:59:02.805Z,28.12
2019-04-30T20:01:32.063Z,42.50
2019-04-30T20:04:05.161Z,45.60
2019-04-30T20:06:38.601Z,28.05
2019-04-30T20:09:13.044Z,23.22
2019-04-30T20:11:45.530Z,15.35
2019-04-30T20:14:19.076Z,18.17
2019-04-30T20:16:52.422Z,27.70
2019-04-30T20:19:24.462Z,47.85
2019-04-30T20:21:59.470Z,43.95
2019-04-30T20:24:34.871Z,43.05
2019-04-30T20:27:10.116Z,45.38
2019-04-30T20:29:44.831Z,42.20
2019-04-30T20:32:17.140Z,39.80
2019-04-30T20:34:59.617Z,25.72
2019-04-30T20:37:34.757Z,44.83
2019-04-30T20:40:18.488Z,48.90
2019-04-30T20:42:50.023Z,36.48
2019-04-30T20:45:24.866Z,23.70
2019-04-30T20:50:34.414Z,15.15
2019-04-30T20:53:06.074Z,34.45
2019-04-30T20:55:40.794Z,39.58
2019-04-30T20:58:13.220Z,38.13
2019-04-30T21:01:00.301Z,30.70
2019-04-30T21:03:23.158Z,18.82
2019-04-30T21:05:54.913Z,29.87
2019-04-30T21:08:28.216Z,18.87
2019-04-30T21:11:03.812Z,22.90
2019-04-30T21:13:36.133Z,41.58
2019-04-30T21:16:09.554Z,32.38
2019-04-30T21:18:41.859Z,19.77
2019-04-30T21:21:13.531Z,41.23
2019-04-30T21:23:45.074Z,29.95
2019-04-30T21:26:16.743Z,27.42
2019-04-30T21:28:49.424Z,33.45
2019-04-30T21:31:42.528Z,35.92
2019-04-30T21:34:15.855Z,32.83
2019-04-30T21:36:49.522Z,29.23
2019-04-30T21:39:20.985Z,20.43
2019-04-30T21:41:52.793Z,36.40
2019-04-30T21:44:24.484Z,39.15
2019-04-30T21:46:57.134Z,27.45
2019-04-30T21:49:28.959Z,40.95
2019-04-30T21:52:01.488Z,41.45
2019-04-30T21:54:35.144Z,32.20
2019-04-30T21:57:06.803Z,41.40
2019-04-30T21:59:39.716Z,17.05
2019-04-30T22:02:12.918Z,19.35
2019-04-30T22:04:44.692Z,35.10
2019-04-30T22:07:19.582Z,31.62
2019-04-30T22:09:53.613Z,26.00
2019-04-30T22:12:28.411Z,38.48
2019-04-30T22:15:01.803Z,38.92
2019-04-30T22:17:35.533Z,40.10
2019-04-30T22:20:09.612Z,31.13
2019-04-30T22:22:43.018Z,44.18
2019-04-30T22:25:14.683Z,46.42
2019-04-30T22:27:46.882Z,43.83
2019-04-30T22:30:20.082Z,45.55
2019-04-30T22:32:51.725Z,49.65
2019-04-30T22:35:27.990Z,43.20
2019-04-30T22:38:01.254Z,45.28
2019-04-30T22:40:33.367Z,47.20
2019-04-30T22:43:05.189Z,45.75
2019-04-30T22:45:44.648Z,46.68
2019-04-30T22:48:18.702Z,40.58
2019-04-30T22:50:50.343Z,28.15
2019-04-30T22:53:23.540Z,40.70
2019-04-30T22:55:55.723Z,38.78
2019-04-30T22:58:27.533Z,47.78
2019-04-30T23:01:17.445Z,34.27
2019-04-30T23:03:50.876Z,41.10
2019-04-30T23:06:22.793Z,42.43
2019-04-30T23:08:54.482Z,39.55
2019-04-30T23:11:26.313Z,31.87
2019-04-30T23:13:59.312Z,34.33
2019-04-30T23:16:32.602Z,33.95
2019-04-30T23:19:04.291Z,36.23
2019-04-30T23:21:36.042Z,19.90
2019-04-30T23:24:07.814Z,16.77
2019-04-30T23:26:41.076Z,23.07
2019-04-30T23:29:12.844Z,18.82
2019-04-30T23:31:46.089Z,33.33
2019-04-30T23:34:18.909Z,16.48
2019-04-30T23:36:51.086Z,39.42
2019-04-30T23:39:22.694Z,35.17
2019-04-30T23:41:54.389Z,26.73
2019-04-30T23:44:27.215Z,25.00
2019-04-30T23:46:58.903Z,31.70
2019-04-30T23:49:30.766Z,37.28
2019-04-30T23:52:02.576Z,29.42
2019-04-30T23:54:34.305Z,35.45
2019-04-30T23:57:07.134Z,40.30
2019-04-30T23:59:38.778Z,22.35
